sensor_id;sensor_type;location;lat;lon;timestamp;P1;durP1;ratioP1;P2;durP2;ratioP2
65096;SDS011;51686;46.758;4.356;2023-04-03T00:01:30;5.80;;;2.85;;
65096;SDS011;51686;46.758;4.356;2023-04-03T00:04:17;5.10;;;2.60;;
65096;SDS011;51686;46.758;4.356;2023-04-03T00:07:04;5.97;;;2.70;;
65096;SDS011;51686;46.758;4.356;2023-04-03T00:09:51;5.35;;;2.42;;
65096;SDS011;51686;46.758;4.356;2023-04-03T00:12:38;6.22;;;2.60;;
65096;SDS011;51686;46.758;4.356;2023-04-03T00:15:25;5.85;;;3.10;;
65096;SDS011;51686;46.758;4.356;2023-04-03T00:18:12;7.60;;;2.90;;
65096;SDS011;51686;46.758;4.356;2023-04-03T00:20:58;5.40;;;2.53;;
65096;SDS011;51686;46.758;4.356;2023-04-03T00:23:46;6.50;;;2.90;;
65096;SDS011;51686;46.758;4.356;2023-04-03T00:26:33;6.13;;;3.05;;
65096;SDS011;51686;46.758;4.356;2023-04-03T00:29:19;5.18;;;2.45;;
65096;SDS011;51686;46.758;4.356;2023-04-03T00:32:06;6.05;;;2.83;;
65096;SDS011;51686;46.758;4.356;2023-04-03T00:34:53;7.15;;;2.80;;
65096;SDS011;51686;46.758;4.356;2023-04-03T00:37:40;6.78;;;2.83;;
65096;SDS011;51686;46.758;4.356;2023-04-03T00:40:27;5.40;;;2.70;;
65096;SDS011;51686;46.758;4.356;2023-04-03T00:43:16;5.95;;;2.80;;
65096;SDS011;51686;46.758;4.356;2023-04-03T00:46:04;6.20;;;2.80;;
65096;SDS011;51686;46.758;4.356;2023-04-03T00:48:51;5.35;;;2.70;;
65096;SDS011;51686;46.758;4.356;2023-04-03T00:51:38;5.53;;;2.65;;
65096;SDS011;51686;46.758;4.356;2023-04-03T00:54:26;5.07;;;2.45;;
65096;SDS011;51686;46.758;4.356;2023-04-03T00:57:13;6.18;;;2.72;;
65096;SDS011;51686;46.758;4.356;2023-04-03T01:00:04;4.75;;;2.30;;
65096;SDS011;51686;46.758;4.356;2023-04-03T01:02:54;6.68;;;2.90;;
65096;SDS011;51686;46.758;4.356;2023-04-03T01:05:42;4.28;;;2.40;;
65096;SDS011;51686;46.758;4.356;2023-04-03T01:08:29;6.32;;;2.70;;
65096;SDS011;51686;46.758;4.356;2023-04-03T01:11:16;6.10;;;2.60;;
65096;SDS011;51686;46.758;4.356;2023-04-03T01:14:03;5.93;;;2.78;;
65096;SDS011;51686;46.758;4.356;2023-04-03T01:19:39;6.22;;;2.80;;
65096;SDS011;51686;46.758;4.356;2023-04-03T01:22:30;5.07;;;2.38;;
65096;SDS011;51686;46.758;4.356;2023-04-03T01:25:22;5.97;;;2.53;;
65096;SDS011;51686;46.758;4.356;2023-04-03T01:28:10;5.00;;;2.35;;
65096;SDS011;51686;46.758;4.356;2023-04-03T01:34:11;5.30;;;2.55;;
65096;SDS011;51686;46.758;4.356;2023-04-03T01:36:58;5.13;;;2.45;;
65096;SDS011;51686;46.758;4.356;2023-04-03T01:39:45;5.70;;;2.60;;
65096;SDS011;51686;46.758;4.356;2023-04-03T01:42:32;5.22;;;2.50;;
65096;SDS011;51686;46.758;4.356;2023-04-03T01:45:19;5.00;;;2.30;;
65096;SDS011;51686;46.758;4.356;2023-04-03T01:48:06;4.95;;;2.42;;
65096;SDS011;51686;46.758;4.356;2023-04-03T01:50:53;4.93;;;2.40;;
65096;SDS011;51686;46.758;4.356;2023-04-03T01:53:40;6.28;;;2.40;;
65096;SDS011;51686;46.758;4.356;2023-04-03T01:56:27;5.65;;;2.30;;
65096;SDS011;51686;46.758;4.356;2023-04-03T01:59:14;4.63;;;2.35;;
65096;SDS011;51686;46.758;4.356;2023-04-03T02:04:50;6.28;;;2.60;;
65096;SDS011;51686;46.758;4.356;2023-04-03T02:07:37;5.80;;;2.70;;
65096;SDS011;51686;46.758;4.356;2023-04-03T02:10:23;5.15;;;2.42;;
65096;SDS011;51686;46.758;4.356;2023-04-03T02:13:10;6.32;;;2.80;;
65096;SDS011;51686;46.758;4.356;2023-04-03T02:15:57;5.80;;;2.60;;
65096;SDS011;51686;46.758;4.356;2023-04-03T02:18:45;5.50;;;2.50;;
65096;SDS011;51686;46.758;4.356;2023-04-03T02:21:32;5.53;;;2.50;;
65096;SDS011;51686;46.758;4.356;2023-04-03T02:24:19;5.40;;;2.50;;
65096;SDS011;51686;46.758;4.356;2023-04-03T02:27:06;5.03;;;2.65;;
65096;SDS011;51686;46.758;4.356;2023-04-03T02:29:53;5.25;;;2.40;;
65096;SDS011;51686;46.758;4.356;2023-04-03T02:32:40;5.10;;;2.45;;
65096;SDS011;51686;46.758;4.356;2023-04-03T02:35:28;5.50;;;2.45;;
65096;SDS011;51686;46.758;4.356;2023-04-03T02:38:15;6.45;;;2.67;;
65096;SDS011;51686;46.758;4.356;2023-04-03T02:41:03;5.97;;;2.50;;
65096;SDS011;51686;46.758;4.356;2023-04-03T02:43:51;5.65;;;2.65;;
65096;SDS011;51686;46.758;4.356;2023-04-03T02:46:38;4.38;;;2.33;;
65096;SDS011;51686;46.758;4.356;2023-04-03T02:49:25;5.47;;;2.60;;
65096;SDS011;51686;46.758;4.356;2023-04-03T02:52:13;5.40;;;2.58;;
65096;SDS011;51686;46.758;4.356;2023-04-03T02:55:00;5.45;;;2.60;;
65096;SDS011;51686;46.758;4.356;2023-04-03T02:57:47;6.13;;;2.50;;
65096;SDS011;51686;46.758;4.356;2023-04-03T03:00:34;4.78;;;2.47;;
65096;SDS011;51686;46.758;4.356;2023-04-03T03:03:22;5.13;;;2.40;;
65096;SDS011;51686;46.758;4.356;2023-04-03T03:06:10;4.93;;;2.40;;
65096;SDS011;51686;46.758;4.356;2023-04-03T03:11:46;5.18;;;2.53;;
65096;SDS011;51686;46.758;4.356;2023-04-03T03:14:32;5.53;;;2.60;;
65096;SDS011;51686;46.758;4.356;2023-04-03T03:17:19;5.88;;;2.40;;
65096;SDS011;51686;46.758;4.356;2023-04-03T03:20:07;5.50;;;2.47;;
65096;SDS011;51686;46.758;4.356;2023-04-03T03:22:54;5.43;;;2.50;;
65096;SDS011;51686;46.758;4.356;2023-04-03T03:25:41;5.22;;;2.50;;
65096;SDS011;51686;46.758;4.356;2023-04-03T03:28:28;5.35;;;2.60;;
65096;SDS011;51686;46.758;4.356;2023-04-03T03:31:15;5.43;;;2.58;;
65096;SDS011;51686;46.758;4.356;2023-04-03T03:34:02;5.75;;;2.60;;
65096;SDS011;51686;46.758;4.356;2023-04-03T03:36:49;5.07;;;2.40;;
65096;SDS011;51686;46.758;4.356;2023-04-03T03:39:35;6.43;;;2.63;;
65096;SDS011;51686;46.758;4.356;2023-04-03T03:42:22;6.70;;;2.72;;
65096;SDS011;51686;46.758;4.356;2023-04-03T03:45:09;6.25;;;2.42;;
65096;SDS011;51686;46.758;4.356;2023-04-03T03:47:57;5.10;;;2.50;;
65096;SDS011;51686;46.758;4.356;2023-04-03T03:50:44;5.40;;;2.50;;
65096;SDS011;51686;46.758;4.356;2023-04-03T03:53:31;5.70;;;2.50;;
65096;SDS011;51686;46.758;4.356;2023-04-03T03:56:18;5.90;;;2.60;;
65096;SDS011;51686;46.758;4.356;2023-04-03T03:59:04;5.85;;;2.60;;
65096;SDS011;51686;46.758;4.356;2023-04-03T04:01:52;5.53;;;2.45;;
65096;SDS011;51686;46.758;4.356;2023-04-03T04:04:38;6.40;;;2.70;;
65096;SDS011;51686;46.758;4.356;2023-04-03T04:07:25;4.80;;;2.50;;
65096;SDS011;51686;46.758;4.356;2023-04-03T04:10:14;6.03;;;2.30;;
65096;SDS011;51686;46.758;4.356;2023-04-03T04:13:01;6.20;;;2.60;;
65096;SDS011;51686;46.758;4.356;2023-04-03T04:15:48;6.15;;;2.63;;
65096;SDS011;51686;46.758;4.356;2023-04-03T04:18:35;6.80;;;2.70;;
65096;SDS011;51686;46.758;4.356;2023-04-03T04:21:22;5.07;;;2.25;;
65096;SDS011;51686;46.758;4.356;2023-04-03T04:24:09;6.78;;;2.65;;
65096;SDS011;51686;46.758;4.356;2023-04-03T04:26:56;5.75;;;2.47;;
65096;SDS011;51686;46.758;4.356;2023-04-03T04:29:43;5.78;;;2.70;;
65096;SDS011;51686;46.758;4.356;2023-04-03T04:32:30;5.72;;;2.50;;
65096;SDS011;51686;46.758;4.356;2023-04-03T04:35:17;5.22;;;2.63;;
65096;SDS011;51686;46.758;4.356;2023-04-03T04:38:04;5.85;;;2.72;;
65096;SDS011;51686;46.758;4.356;2023-04-03T04:40:51;4.75;;;2.35;;
65096;SDS011;51686;46.758;4.356;2023-04-03T04:43:38;5.00;;;2.42;;
65096;SDS011;51686;46.758;4.356;2023-04-03T04:46:25;5.22;;;2.45;;
65096;SDS011;51686;46.758;4.356;2023-04-03T04:49:12;5.80;;;2.47;;
65096;SDS011;51686;46.758;4.356;2023-04-03T04:51:58;5.22;;;2.50;;
65096;SDS011;51686;46.758;4.356;2023-04-03T04:54:45;5.30;;;2.53;;
65096;SDS011;51686;46.758;4.356;2023-04-03T04:57:32;6.20;;;2.90;;
65096;SDS011;51686;46.758;4.356;2023-04-03T05:00:19;6.40;;;2.90;;
65096;SDS011;51686;46.758;4.356;2023-04-03T05:03:07;4.15;;;2.40;;
65096;SDS011;51686;46.758;4.356;2023-04-03T05:05:53;5.40;;;2.60;;
65096;SDS011;51686;46.758;4.356;2023-04-03T05:08:40;5.38;;;2.55;;
65096;SDS011;51686;46.758;4.356;2023-04-03T05:11:27;5.20;;;2.55;;
65096;SDS011;51686;46.758;4.356;2023-04-03T05:14:14;6.15;;;2.60;;
65096;SDS011;51686;46.758;4.356;2023-04-03T05:17:01;5.93;;;2.90;;
65096;SDS011;51686;46.758;4.356;2023-04-03T05:19:48;5.20;;;2.63;;
65096;SDS011;51686;46.758;4.356;2023-04-03T05:22:35;5.75;;;2.80;;
65096;SDS011;51686;46.758;4.356;2023-04-03T05:25:22;5.05;;;2.38;;
65096;SDS011;51686;46.758;4.356;2023-04-03T05:28:12;5.90;;;2.55;;
65096;SDS011;51686;46.758;4.356;2023-04-03T05:30:59;6.57;;;2.60;;
65096;SDS011;51686;46.758;4.356;2023-04-03T05:33:46;6.35;;;2.30;;
65096;SDS011;51686;46.758;4.356;2023-04-03T05:36:33;6.10;;;2.60;;
65096;SDS011;51686;46.758;4.356;2023-04-03T05:39:20;5.47;;;2.70;;
65096;SDS011;51686;46.758;4.356;2023-04-03T05:42:08;6.28;;;2.70;;
65096;SDS011;51686;46.758;4.356;2023-04-03T05:44:55;6.90;;;2.70;;
65096;SDS011;51686;46.758;4.356;2023-04-03T05:47:42;5.93;;;2.65;;
65096;SDS011;51686;46.758;4.356;2023-04-03T05:50:29;5.72;;;2.60;;
65096;SDS011;51686;46.758;4.356;2023-04-03T05:53:25;6.88;;;3.08;;
65096;SDS011;51686;46.758;4.356;2023-04-03T05:56:14;7.22;;;3.08;;
65096;SDS011;51686;46.758;4.356;2023-04-03T05:59:01;7.35;;;3.10;;
65096;SDS011;51686;46.758;4.356;2023-04-03T06:01:48;8.02;;;3.20;;
65096;SDS011;51686;46.758;4.356;2023-04-03T06:04:34;8.40;;;2.97;;
65096;SDS011;51686;46.758;4.356;2023-04-03T06:07:22;6.55;;;3.05;;
65096;SDS011;51686;46.758;4.356;2023-04-03T06:10:12;7.63;;;3.00;;
65096;SDS011;51686;46.758;4.356;2023-04-03T06:12:59;6.68;;;2.80;;
65096;SDS011;51686;46.758;4.356;2023-04-03T06:15:46;7.20;;;3.05;;
65096;SDS011;51686;46.758;4.356;2023-04-03T06:18:33;6.30;;;2.90;;
65096;SDS011;51686;46.758;4.356;2023-04-03T06:21:20;5.55;;;2.83;;
65096;SDS011;51686;46.758;4.356;2023-04-03T06:24:07;6.05;;;3.08;;
65096;SDS011;51686;46.758;4.356;2023-04-03T06:26:54;7.00;;;2.90;;
65096;SDS011;51686;46.758;4.356;2023-04-03T06:29:41;7.60;;;3.20;;
65096;SDS011;51686;46.758;4.356;2023-04-03T06:32:28;6.85;;;3.10;;
65096;SDS011;51686;46.758;4.356;2023-04-03T06:35:15;5.88;;;2.70;;
65096;SDS011;51686;46.758;4.356;2023-04-03T06:38:02;7.10;;;3.67;;
65096;SDS011;51686;46.758;4.356;2023-04-03T06:40:54;7.00;;;3.00;;
65096;SDS011;51686;46.758;4.356;2023-04-03T06:43:45;7.95;;;3.10;;
65096;SDS011;51686;46.758;4.356;2023-04-03T06:46:32;6.53;;;2.72;;
65096;SDS011;51686;46.758;4.356;2023-04-03T06:49:22;6.60;;;3.10;;
65096;SDS011;51686;46.758;4.356;2023-04-03T06:52:09;5.85;;;2.83;;
65096;SDS011;51686;46.758;4.356;2023-04-03T06:54:56;7.30;;;3.10;;
65096;SDS011;51686;46.758;4.356;2023-04-03T06:57:45;6.78;;;3.00;;
65096;SDS011;51686;46.758;4.356;2023-04-03T07:00:32;6.57;;;2.95;;
65096;SDS011;51686;46.758;4.356;2023-04-03T07:03:19;5.85;;;2.58;;
65096;SDS011;51686;46.758;4.356;2023-04-03T07:06:06;6.80;;;3.03;;
65096;SDS011;51686;46.758;4.356;2023-04-03T07:08:54;6.82;;;3.00;;
65096;SDS011;51686;46.758;4.356;2023-04-03T07:11:41;7.60;;;3.05;;
65096;SDS011;51686;46.758;4.356;2023-04-03T07:14:28;5.60;;;2.92;;
65096;SDS011;51686;46.758;4.356;2023-04-03T07:17:15;6.03;;;2.83;;
65096;SDS011;51686;46.758;4.356;2023-04-03T07:20:02;6.68;;;3.10;;
65096;SDS011;51686;46.758;4.356;2023-04-03T07:22:50;6.97;;;2.97;;
65096;SDS011;51686;46.758;4.356;2023-04-03T07:25:41;6.22;;;2.80;;
65096;SDS011;51686;46.758;4.356;2023-04-03T07:28:29;7.13;;;3.15;;
65096;SDS011;51686;46.758;4.356;2023-04-03T07:31:17;7.03;;;2.70;;
65096;SDS011;51686;46.758;4.356;2023-04-03T07:34:04;7.72;;;3.00;;
65096;SDS011;51686;46.758;4.356;2023-04-03T07:36:51;5.93;;;2.70;;
65096;SDS011;51686;46.758;4.356;2023-04-03T07:39:38;6.07;;;2.65;;
65096;SDS011;51686;46.758;4.356;2023-04-03T07:42:25;7.18;;;3.10;;
65096;SDS011;51686;46.758;4.356;2023-04-03T07:45:15;6.35;;;2.80;;
65096;SDS011;51686;46.758;4.356;2023-04-03T07:48:03;6.15;;;2.55;;
65096;SDS011;51686;46.758;4.356;2023-04-03T07:50:51;6.70;;;2.92;;
65096;SDS011;51686;46.758;4.356;2023-04-03T07:53:38;7.00;;;2.90;;
65096;SDS011;51686;46.758;4.356;2023-04-03T07:56:25;7.30;;;2.83;;
65096;SDS011;51686;46.758;4.356;2023-04-03T07:59:12;6.75;;;2.75;;
65096;SDS011;51686;46.758;4.356;2023-04-03T08:01:59;5.70;;;2.67;;
65096;SDS011;51686;46.758;4.356;2023-04-03T08:04:46;6.63;;;2.67;;
65096;SDS011;51686;46.758;4.356;2023-04-03T08:07:33;7.05;;;2.78;;
65096;SDS011;51686;46.758;4.356;2023-04-03T08:10:20;6.38;;;2.65;;
65096;SDS011;51686;46.758;4.356;2023-04-03T08:13:07;6.07;;;2.70;;
65096;SDS011;51686;46.758;4.356;2023-04-03T08:15:54;6.15;;;2.80;;
65096;SDS011;51686;46.758;4.356;2023-04-03T08:18:43;6.07;;;2.63;;
65096;SDS011;51686;46.758;4.356;2023-04-03T08:21:30;6.30;;;2.35;;
65096;SDS011;51686;46.758;4.356;2023-04-03T08:24:17;5.93;;;2.40;;
65096;SDS011;51686;46.758;4.356;2023-04-03T08:27:04;6.78;;;2.42;;
65096;SDS011;51686;46.758;4.356;2023-04-03T08:29:51;5.57;;;2.30;;
65096;SDS011;51686;46.758;4.356;2023-04-03T08:32:38;5.15;;;2.53;;
65096;SDS011;51686;46.758;4.356;2023-04-03T08:35:25;5.18;;;2.22;;
65096;SDS011;51686;46.758;4.356;2023-04-03T08:38:12;5.50;;;2.30;;
65096;SDS011;51686;46.758;4.356;2023-04-03T08:41:24;5.28;;;2.30;;
65096;SDS011;51686;46.758;4.356;2023-04-03T08:44:19;6.47;;;2.47;;
65096;SDS011;51686;46.758;4.356;2023-04-03T08:50:30;5.03;;;2.20;;
65096;SDS011;51686;46.758;4.356;2023-04-03T08:53:23;5.10;;;2.10;;
65096;SDS011;51686;46.758;4.356;2023-04-03T08:56:14;4.65;;;2.15;;
65096;SDS011;51686;46.758;4.356;2023-04-03T08:59:06;5.18;;;2.10;;
65096;SDS011;51686;46.758;4.356;2023-04-03T09:01:59;3.88;;;2.03;;
65096;SDS011;51686;46.758;4.356;2023-04-03T09:04:51;5.13;;;2.03;;
65096;SDS011;51686;46.758;4.356;2023-04-03T09:07:39;4.32;;;2.03;;
65096;SDS011;51686;46.758;4.356;2023-04-03T09:10:30;5.82;;;2.10;;
65096;SDS011;51686;46.758;4.356;2023-04-03T09:16:45;4.97;;;2.03;;
65096;SDS011;51686;46.758;4.356;2023-04-03T09:19:54;4.30;;;2.00;;
65096;SDS011;51686;46.758;4.356;2023-04-03T09:22:45;5.68;;;2.10;;
65096;SDS011;51686;46.758;4.356;2023-04-03T09:25:38;5.70;;;2.20;;
65096;SDS011;51686;46.758;4.356;2023-04-03T09:28:25;5.70;;;2.08;;
65096;SDS011;51686;46.758;4.356;2023-04-03T09:31:16;5.28;;;1.90;;
65096;SDS011;51686;46.758;4.356;2023-04-03T09:34:09;4.53;;;1.90;;
65096;SDS011;51686;46.758;4.356;2023-04-03T09:37:32;5.13;;;2.00;;
65096;SDS011;51686;46.758;4.356;2023-04-03T09:40:28;4.47;;;1.90;;
65096;SDS011;51686;46.758;4.356;2023-04-03T09:46:17;4.35;;;1.88;;
65096;SDS011;51686;46.758;4.356;2023-04-03T09:49:08;5.28;;;1.80;;
65096;SDS011;51686;46.758;4.356;2023-04-03T09:51:58;3.88;;;1.80;;
65096;SDS011;51686;46.758;4.356;2023-04-03T09:55:10;4.68;;;1.70;;
65096;SDS011;51686;46.758;4.356;2023-04-03T09:58:02;3.10;;;1.60;;
65096;SDS011;51686;46.758;4.356;2023-04-03T10:03:40;3.97;;;1.65;;
65096;SDS011;51686;46.758;4.356;2023-04-03T10:06:34;4.30;;;1.85;;
65096;SDS011;51686;46.758;4.356;2023-04-03T10:09:24;4.72;;;1.80;;
65096;SDS011;51686;46.758;4.356;2023-04-03T10:12:12;4.50;;;1.80;;
65096;SDS011;51686;46.758;4.356;2023-04-03T10:15:02;5.70;;;1.85;;
65096;SDS011;51686;46.758;4.356;2023-04-03T10:18:00;5.97;;;2.00;;
65096;SDS011;51686;46.758;4.356;2023-04-03T10:21:13;4.80;;;1.70;;
65096;SDS011;51686;46.758;4.356;2023-04-03T10:27:43;3.08;;;1.70;;
65096;SDS011;51686;46.758;4.356;2023-04-03T10:31:29;5.05;;;2.03;;
65096;SDS011;51686;46.758;4.356;2023-04-03T10:37:27;5.57;;;1.80;;
65096;SDS011;51686;46.758;4.356;2023-04-03T10:43:44;3.05;;;1.65;;
65096;SDS011;51686;46.758;4.356;2023-04-03T10:47:12;4.35;;;1.75;;
65096;SDS011;51686;46.758;4.356;2023-04-03T10:56:26;4.03;;;1.65;;
65096;SDS011;51686;46.758;4.356;2023-04-03T10:59:30;3.13;;;1.70;;
65096;SDS011;51686;46.758;4.356;2023-04-03T11:05:50;4.25;;;1.80;;
65096;SDS011;51686;46.758;4.356;2023-04-03T11:11:31;3.47;;;1.70;;
65096;SDS011;51686;46.758;4.356;2023-04-03T11:14:29;4.45;;;1.75;;
65096;SDS011;51686;46.758;4.356;2023-04-03T11:23:05;4.88;;;1.70;;
65096;SDS011;51686;46.758;4.356;2023-04-03T11:25:56;3.40;;;1.60;;
65096;SDS011;51686;46.758;4.356;2023-04-03T11:28:58;3.33;;;1.60;;
65096;SDS011;51686;46.758;4.356;2023-04-03T11:34:42;3.28;;;1.60;;
65096;SDS011;51686;46.758;4.356;2023-04-03T11:37:33;2.92;;;1.58;;
65096;SDS011;51686;46.758;4.356;2023-04-03T11:40:24;3.85;;;1.55;;
65096;SDS011;51686;46.758;4.356;2023-04-03T11:43:23;3.90;;;1.70;;
65096;SDS011;51686;46.758;4.356;2023-04-03T11:46:15;3.67;;;1.60;;
65096;SDS011;51686;46.758;4.356;2023-04-03T11:49:08;3.67;;;1.88;;
65096;SDS011;51686;46.758;4.356;2023-04-03T11:58:17;4.40;;;1.70;;
65096;SDS011;51686;46.758;4.356;2023-04-03T12:01:10;2.63;;;1.50;;
65096;SDS011;51686;46.758;4.356;2023-04-03T12:04:04;3.23;;;1.50;;
65096;SDS011;51686;46.758;4.356;2023-04-03T12:07:16;3.10;;;1.52;;
65096;SDS011;51686;46.758;4.356;2023-04-03T12:10:14;5.80;;;1.60;;
65096;SDS011;51686;46.758;4.356;2023-04-03T12:13:17;4.00;;;1.80;;
65096;SDS011;51686;46.758;4.356;2023-04-03T12:16:04;3.38;;;1.73;;
65096;SDS011;51686;46.758;4.356;2023-04-03T12:24:36;3.47;;;1.50;;
65096;SDS011;51686;46.758;4.356;2023-04-03T12:30:26;4.00;;;1.70;;
65096;SDS011;51686;46.758;4.356;2023-04-03T12:33:27;4.30;;;1.70;;
65096;SDS011;51686;46.758;4.356;2023-04-03T12:36:28;3.55;;;1.55;;
65096;SDS011;51686;46.758;4.356;2023-04-03T12:45:28;3.17;;;1.48;;
65096;SDS011;51686;46.758;4.356;2023-04-03T12:51:42;2.23;;;1.30;;
65096;SDS011;51686;46.758;4.356;2023-04-03T12:54:35;3.25;;;1.50;;
65096;SDS011;51686;46.758;4.356;2023-04-03T12:57:27;4.15;;;1.45;;
65096;SDS011;51686;46.758;4.356;2023-04-03T13:03:24;4.45;;;1.65;;
65096;SDS011;51686;46.758;4.356;2023-04-03T13:06:21;3.35;;;1.50;;
65096;SDS011;51686;46.758;4.356;2023-04-03T13:09:26;2.55;;;1.40;;
65096;SDS011;51686;46.758;4.356;2023-04-03T13:12:15;2.25;;;1.40;;
65096;SDS011;51686;46.758;4.356;2023-04-03T13:15:12;3.00;;;1.40;;
65096;SDS011;51686;46.758;4.356;2023-04-03T13:20:49;3.30;;;1.58;;
65096;SDS011;51686;46.758;4.356;2023-04-03T13:23:37;2.90;;;1.42;;
65096;SDS011;51686;46.758;4.356;2023-04-03T13:26:28;3.65;;;1.50;;
65096;SDS011;51686;46.758;4.356;2023-04-03T13:29:24;3.15;;;1.58;;
65096;SDS011;51686;46.758;4.356;2023-04-03T13:32:18;2.67;;;1.40;;
65096;SDS011;51686;46.758;4.356;2023-04-03T13:41:05;3.65;;;1.48;;
65096;SDS011;51686;46.758;4.356;2023-04-03T13:44:25;3.08;;;1.45;;
65096;SDS011;51686;46.758;4.356;2023-04-03T13:47:16;4.57;;;1.75;;
65096;SDS011;51686;46.758;4.356;2023-04-03T13:53:02;5.70;;;2.15;;
65096;SDS011;51686;46.758;4.356;2023-04-03T13:58:53;4.40;;;1.70;;
65096;SDS011;51686;46.758;4.356;2023-04-03T14:07:31;3.40;;;1.50;;
65096;SDS011;51686;46.758;4.356;2023-04-03T14:10:19;4.32;;;1.45;;
65096;SDS011;51686;46.758;4.356;2023-04-03T14:13:06;3.85;;;1.63;;
65096;SDS011;51686;46.758;4.356;2023-04-03T14:15:53;2.55;;;1.38;;
65096;SDS011;51686;46.758;4.356;2023-04-03T14:18:44;3.50;;;1.60;;
65096;SDS011;51686;46.758;4.356;2023-04-03T14:21:32;3.70;;;1.65;;
65096;SDS011;51686;46.758;4.356;2023-04-03T14:24:19;4.05;;;1.40;;
65096;SDS011;51686;46.758;4.356;2023-04-03T14:27:15;3.75;;;1.50;;
65096;SDS011;51686;46.758;4.356;2023-04-03T14:30:03;2.85;;;1.40;;
65096;SDS011;51686;46.758;4.356;2023-04-03T14:35:38;3.63;;;1.48;;
65096;SDS011;51686;46.758;4.356;2023-04-03T14:38:27;2.70;;;1.40;;
65096;SDS011;51686;46.758;4.356;2023-04-03T14:41:16;2.47;;;1.35;;
65096;SDS011;51686;46.758;4.356;2023-04-03T14:44:04;3.63;;;1.50;;
65096;SDS011;51686;46.758;4.356;2023-04-03T14:46:51;3.22;;;1.50;;
65096;SDS011;51686;46.758;4.356;2023-04-03T14:49:43;4.82;;;1.58;;
65096;SDS011;51686;46.758;4.356;2023-04-03T14:52:32;3.28;;;1.27;;
65096;SDS011;51686;46.758;4.356;2023-04-03T14:55:22;3.38;;;1.40;;
65096;SDS011;51686;46.758;4.356;2023-04-03T14:58:12;2.38;;;1.20;;
65096;SDS011;51686;46.758;4.356;2023-04-03T15:01:00;2.72;;;1.38;;
65096;SDS011;51686;46.758;4.356;2023-04-03T15:03:47;2.28;;;1.20;;
65096;SDS011;51686;46.758;4.356;2023-04-03T15:06:35;2.20;;;1.30;;
65096;SDS011;51686;46.758;4.356;2023-04-03T15:09:26;3.67;;;1.50;;
65096;SDS011;51686;46.758;4.356;2023-04-03T15:12:13;2.42;;;1.40;;
65096;SDS011;51686;46.758;4.356;2023-04-03T15:15:05;3.13;;;1.48;;
65096;SDS011;51686;46.758;4.356;2023-04-03T15:17:54;3.15;;;1.40;;
65096;SDS011;51686;46.758;4.356;2023-04-03T15:20:44;1.85;;;1.17;;
65096;SDS011;51686;46.758;4.356;2023-04-03T15:23:31;3.70;;;1.52;;
65096;SDS011;51686;46.758;4.356;2023-04-03T15:26:18;2.38;;;1.25;;
65096;SDS011;51686;46.758;4.356;2023-04-03T15:29:05;2.17;;;1.30;;
65096;SDS011;51686;46.758;4.356;2023-04-03T15:31:52;3.38;;;1.30;;
65096;SDS011;51686;46.758;4.356;2023-04-03T15:34:40;2.88;;;1.30;;
65096;SDS011;51686;46.758;4.356;2023-04-03T15:37:27;2.67;;;1.30;;
65096;SDS011;51686;46.758;4.356;2023-04-03T15:40:14;2.17;;;1.33;;
65096;SDS011;51686;46.758;4.356;2023-04-03T15:43:01;3.30;;;1.40;;
65096;SDS011;51686;46.758;4.356;2023-04-03T15:45:48;3.92;;;1.67;;
65096;SDS011;51686;46.758;4.356;2023-04-03T15:48:36;3.47;;;1.40;;
65096;SDS011;51686;46.758;4.356;2023-04-03T15:51:23;2.80;;;1.33;;
65096;SDS011;51686;46.758;4.356;2023-04-03T15:54:10;2.55;;;1.20;;
65096;SDS011;51686;46.758;4.356;2023-04-03T15:56:57;3.03;;;1.40;;
65096;SDS011;51686;46.758;4.356;2023-04-03T15:59:44;2.83;;;1.25;;
65096;SDS011;51686;46.758;4.356;2023-04-03T16:02:31;3.47;;;1.35;;
65096;SDS011;51686;46.758;4.356;2023-04-03T16:05:18;4.13;;;1.50;;
65096;SDS011;51686;46.758;4.356;2023-04-03T16:08:05;3.40;;;1.40;;
65096;SDS011;51686;46.758;4.356;2023-04-03T16:10:54;3.08;;;1.50;;
65096;SDS011;51686;46.758;4.356;2023-04-03T16:13:41;2.65;;;1.30;;
65096;SDS011;51686;46.758;4.356;2023-04-03T16:16:28;3.60;;;1.48;;
65096;SDS011;51686;46.758;4.356;2023-04-03T16:19:16;2.42;;;1.40;;
65096;SDS011;51686;46.758;4.356;2023-04-03T16:22:03;2.72;;;1.40;;
65096;SDS011;51686;46.758;4.356;2023-04-03T16:24:50;3.65;;;1.70;;
65096;SDS011;51686;46.758;4.356;2023-04-03T16:27:37;5.05;;;1.75;;
65096;SDS011;51686;46.758;4.356;2023-04-03T16:30:24;2.58;;;1.40;;
65096;SDS011;51686;46.758;4.356;2023-04-03T16:33:12;4.15;;;1.70;;
65096;SDS011;51686;46.758;4.356;2023-04-03T16:35:59;2.78;;;1.42;;
65096;SDS011;51686;46.758;4.356;2023-04-03T16:38:46;4.85;;;1.60;;
65096;SDS011;51686;46.758;4.356;2023-04-03T16:41:33;2.33;;;1.50;;
65096;SDS011;51686;46.758;4.356;2023-04-03T16:44:20;4.63;;;1.60;;
65096;SDS011;51686;46.758;4.356;2023-04-03T16:47:07;4.30;;;1.70;;
65096;SDS011;51686;46.758;4.356;2023-04-03T16:49:54;4.57;;;1.70;;
65096;SDS011;51686;46.758;4.356;2023-04-03T16:52:41;2.92;;;1.50;;
65096;SDS011;51686;46.758;4.356;2023-04-03T16:55:28;4.30;;;1.60;;
65096;SDS011;51686;46.758;4.356;2023-04-03T16:58:15;3.03;;;1.55;;
65096;SDS011;51686;46.758;4.356;2023-04-03T17:01:12;4.45;;;1.70;;
65096;SDS011;51686;46.758;4.356;2023-04-03T17:04:00;3.58;;;1.60;;
65096;SDS011;51686;46.758;4.356;2023-04-03T17:06:47;2.95;;;1.45;;
65096;SDS011;51686;46.758;4.356;2023-04-03T17:09:35;3.10;;;1.65;;
65096;SDS011;51686;46.758;4.356;2023-04-03T17:12:22;3.50;;;1.58;;
65096;SDS011;51686;46.758;4.356;2023-04-03T17:15:09;4.57;;;1.67;;
65096;SDS011;51686;46.758;4.356;2023-04-03T17:17:56;3.53;;;1.77;;
65096;SDS011;51686;46.758;4.356;2023-04-03T17:20:43;3.85;;;1.70;;
65096;SDS011;51686;46.758;4.356;2023-04-03T17:23:30;3.90;;;1.88;;
65096;SDS011;51686;46.758;4.356;2023-04-03T17:26:17;5.35;;;1.90;;
65096;SDS011;51686;46.758;4.356;2023-04-03T17:29:04;3.63;;;1.73;;
65096;SDS011;51686;46.758;4.356;2023-04-03T17:31:51;4.75;;;2.00;;
65096;SDS011;51686;46.758;4.356;2023-04-03T17:34:38;3.70;;;1.70;;
65096;SDS011;51686;46.758;4.356;2023-04-03T17:37:25;3.22;;;1.70;;
65096;SDS011;51686;46.758;4.356;2023-04-03T17:40:12;3.97;;;1.70;;
65096;SDS011;51686;46.758;4.356;2023-04-03T17:43:00;3.63;;;1.80;;
65096;SDS011;51686;46.758;4.356;2023-04-03T17:45:47;4.10;;;1.80;;
65096;SDS011;51686;46.758;4.356;2023-04-03T17:48:34;4.70;;;1.80;;
65096;SDS011;51686;46.758;4.356;2023-04-03T17:51:22;2.77;;;1.60;;
65096;SDS011;51686;46.758;4.356;2023-04-03T17:54:09;4.47;;;1.75;;
65096;SDS011;51686;46.758;4.356;2023-04-03T17:56:56;4.10;;;1.80;;
65096;SDS011;51686;46.758;4.356;2023-04-03T17:59:43;4.18;;;1.80;;
65096;SDS011;51686;46.758;4.356;2023-04-03T18:02:30;4.10;;;1.92;;
65096;SDS011;51686;46.758;4.356;2023-04-03T18:05:18;4.57;;;1.90;;
65096;SDS011;51686;46.758;4.356;2023-04-03T18:08:05;4.63;;;1.92;;
65096;SDS011;51686;46.758;4.356;2023-04-03T18:10:53;3.67;;;1.67;;
65096;SDS011;51686;46.758;4.356;2023-04-03T18:13:40;4.85;;;1.83;;
65096;SDS011;51686;46.758;4.356;2023-04-03T18:16:27;3.78;;;1.73;;
65096;SDS011;51686;46.758;4.356;2023-04-03T18:19:15;3.70;;;1.83;;
65096;SDS011;51686;46.758;4.356;2023-04-03T18:22:13;4.03;;;1.67;;
65096;SDS011;51686;46.758;4.356;2023-04-03T18:25:02;3.67;;;1.67;;
65096;SDS011;51686;46.758;4.356;2023-04-03T18:27:49;3.30;;;1.67;;
65096;SDS011;51686;46.758;4.356;2023-04-03T18:30:36;4.07;;;1.88;;
65096;SDS011;51686;46.758;4.356;2023-04-03T18:33:24;2.88;;;1.65;;
65096;SDS011;51686;46.758;4.356;2023-04-03T18:36:11;3.42;;;1.80;;
65096;SDS011;51686;46.758;4.356;2023-04-03T18:38:58;4.20;;;1.70;;
65096;SDS011;51686;46.758;4.356;2023-04-03T18:41:45;4.07;;;1.80;;
65096;SDS011;51686;46.758;4.356;2023-04-03T18:44:32;3.08;;;1.70;;
65096;SDS011;51686;46.758;4.356;2023-04-03T18:47:20;5.00;;;2.03;;